Time;durP1;ratioP1;P1;durP2;ratioP2;P2;SDS_P1;SDS_P2;PMS_P1;PMS_P2;Temp;Humidity;BMP_temperature;BMP_pressure;BME280_temperature;BME280_humidity;BME280_pressure;Samples;Min_cycle;Max_cycle;Signal;HPM_P1;HPM_P2
2021/12/09 00:01:37;;;;;;;3.30;2.70;;;2.80;99.90;;;;;;5029477;28;20253;-70
2021/12/09 00:04:07;;;;;;;4.75;2.50;;;2.70;99.90;;;;;;5033497;28;20221;-70
2021/12/09 00:06:36;;;;;;;2.60;2.40;;;2.60;99.90;;;;;;5032590;28;20213;-69
2021/12/09 00:09:06;;;;;;;3.28;2.85;;;2.60;99.90;;;;;;5033368;28;20292;-70
2021/12/09 00:16:28;;;;;;;3.55;2.60;;;2.50;99.90;;;;;;5011558;28;20225;-70
2021/12/09 00:18:55;;;;;;;4.47;2.90;;;2.50;99.90;;;;;;5012675;28;20203;-70
2021/12/09 00:21:22;;;;;;;2.83;2.63;;;2.50;99.90;;;;;;5012106;28;20240;-70
2021/12/09 00:23:50;;;;;;;3.30;2.58;;;2.40;99.90;;;;;;5012938;28;20592;-70
2021/12/09 00:26:17;;;;;;;4.18;2.67;;;2.40;99.90;;;;;;5012957;28;20202;-70
2021/12/09 00:28:43;;;;;;;4.20;2.70;;;2.40;99.90;;;;;;5012823;28;20264;-70
2021/12/09 00:31:10;;;;;;;4.30;2.92;;;2.30;99.90;;;;;;5012495;28;20210;-70
2021/12/09 00:33:42;;;;;;;3.10;2.80;;;2.30;99.90;;;;;;5012717;28;20226;-70
2021/12/09 00:36:09;;;;;;;4.72;3.08;;;2.30;99.90;;;;;;5012199;28;20206;-70
2021/12/09 00:38:39;;;;;;;3.97;2.72;;;2.30;99.90;;;;;;5012971;28;20289;-69
2021/12/09 00:41:10;;;;;;;3.80;2.80;;;2.20;99.90;;;;;;5011893;28;20261;-70
2021/12/09 00:43:37;;;;;;;3.50;3.20;;;2.20;99.90;;;;;;5012414;28;20230;-70
2021/12/09 00:46:04;;;;;;;3.33;2.90;;;2.20;99.90;;;;;;5012810;28;20210;-70
2021/12/09 00:48:31;;;;;;;3.00;2.70;;;2.20;99.90;;;;;;5012286;28;20211;-70
2021/12/09 00:50:59;;;;;;;5.07;3.28;;;2.10;99.90;;;;;;5011903;28;20206;-70
2021/12/09 00:53:26;;;;;;;3.97;3.28;;;2.10;99.90;;;;;;5012156;28;20218;-70
2021/12/09 00:55:54;;;;;;;4.82;3.70;;;2.10;99.90;;;;;;5012363;28;20700;-70
2021/12/09 00:58:22;;;;;;;5.47;3.83;;;2.10;99.90;;;;;;5014667;28;20221;-70
2021/12/09 01:00:49;;;;;;;4.03;3.63;;;2.10;99.90;;;;;;5012332;28;20237;-70
2021/12/09 01:03:17;;;;;;;5.93;3.60;;;2.20;99.90;;;;;;5012083;28;20222;-70
2021/12/09 01:05:45;;;;;;;4.28;3.40;;;2.20;99.90;;;;;;5012186;28;20221;-70
2021/12/09 01:08:12;;;;;;;3.53;3.17;;;2.20;99.90;;;;;;5012106;28;20199;-69
2021/12/09 01:10:40;;;;;;;3.92;3.40;;;2.20;99.90;;;;;;5011997;28;20209;-70
2021/12/09 01:13:07;;;;;;;5.57;3.50;;;2.20;99.90;;;;;;5010866;28;20600;-70
2021/12/09 01:15:35;;;;;;;4.80;3.60;;;2.20;99.90;;;;;;5024371;28;20217;-70
2021/12/09 01:18:02;;;;;;;4.25;3.88;;;2.20;99.90;;;;;;5031626;28;20205;-70
2021/12/09 01:20:29;;;;;;;4.53;3.85;;;2.10;99.90;;;;;;5032554;28;20580;-70
2021/12/09 01:22:57;;;;;;;4.30;3.90;;;2.20;99.90;;;;;;5031505;28;20236;-70
2021/12/09 01:25:26;;;;;;;5.75;4.43;;;2.20;99.90;;;;;;5032558;28;20206;-70
2021/12/09 01:27:56;;;;;;;4.70;4.13;;;2.20;99.90;;;;;;5032150;28;20205;-70
2021/12/09 01:32:55;;;;;;;4.90;4.47;;;2.20;99.90;;;;;;5029993;28;20256;-67
2021/12/09 01:35:24;;;;;;;5.38;4.38;;;2.10;99.90;;;;;;5032613;28;20210;-67
2021/12/09 01:37:55;;;;;;;5.93;5.32;;;2.10;99.90;;;;;;5032378;28;20201;-67
2021/12/09 01:40:24;;;;;;;4.95;4.25;;;2.10;99.90;;;;;;5032749;28;20205;-67
2021/12/09 01:42:52;;;;;;;6.28;4.60;;;2.10;99.90;;;;;;5031320;28;20218;-67
2021/12/09 01:45:19;;;;;;;5.50;4.95;;;2.10;99.90;;;;;;5032619;28;20209;-67
2021/12/09 01:47:46;;;;;;;6.22;4.50;;;2.10;99.90;;;;;;5031801;28;20213;-67
2021/12/09 01:50:14;;;;;;;5.00;4.50;;;2.10;99.90;;;;;;5032042;28;20206;-67
2021/12/09 01:52:42;;;;;;;5.07;4.60;;;2.10;99.90;;;;;;5031616;28;20198;-67
2021/12/09 01:55:10;;;;;;;5.05;4.55;;;2.10;99.90;;;;;;5031802;28;20225;-67
2021/12/09 01:57:37;;;;;;;5.25;4.40;;;2.10;99.90;;;;;;5032365;28;20206;-67
2021/12/09 02:00:06;;;;;;;6.18;5.57;;;2.10;99.90;;;;;;5031823;28;20201;-67
2021/12/09 02:02:33;;;;;;;8.18;5.55;;;2.00;99.90;;;;;;5031466;28;20625;-65
2021/12/09 02:05:00;;;;;;;5.78;5.18;;;2.00;99.90;;;;;;5031277;28;20229;-68
2021/12/09 02:07:28;;;;;;;6.20;4.85;;;2.00;99.90;;;;;;5031958;28;20206;-66
2021/12/09 02:09:54;;;;;;;5.55;5.03;;;2.00;99.90;;;;;;5031701;28;20197;-66
2021/12/09 02:12:21;;;;;;;6.50;4.97;;;2.00;99.90;;;;;;5031534;28;20205;-66
2021/12/09 02:14:48;;;;;;;6.47;5.38;;;2.10;99.90;;;;;;5031836;28;20599;-66
2021/12/09 02:17:15;;;;;;;6.35;5.35;;;2.10;99.90;;;;;;5031321;28;20206;-66
2021/12/09 02:19:43;;;;;;;6.28;4.97;;;2.10;99.90;;;;;;5032080;28;20630;-66
2021/12/09 02:22:14;;;;;;;6.00;4.55;;;2.00;99.90;;;;;;5030634;28;20233;-66
2021/12/09 02:24:41;;;;;;;7.55;5.18;;;2.00;99.90;;;;;;5031121;28;20312;-66
2021/12/09 02:27:08;;;;;;;4.93;4.05;;;2.10;99.90;;;;;;5031385;28;20787;-67
2021/12/09 02:29:37;;;;;;;8.60;3.95;;;2.20;99.90;;;;;;5031414;28;20205;-65
2021/12/09 02:32:04;;;;;;;11.90;5.55;;;2.30;99.90;;;;;;5030948;28;20292;-66
2021/12/09 02:34:31;;;;;;;6.55;4.05;;;2.40;99.90;;;;;;5031404;28;20244;-66
2021/12/09 02:36:58;;;;;;;4.10;3.70;;;2.40;99.90;;;;;;5031099;28;20206;-66
2021/12/09 02:39:26;;;;;;;9.70;4.65;;;2.50;99.90;;;;;;5031458;28;20680;-66
2021/12/09 02:41:52;;;;;;;7.05;3.85;;;2.50;99.90;;;;;;5030567;28;20596;-66
2021/12/09 02:44:21;;;;;;;6.68;4.10;;;2.50;99.90;;;;;;5031478;28;20234;-66
2021/12/09 02:46:50;;;;;;;6.90;4.13;;;2.60;99.90;;;;;;5030577;28;20214;-66
2021/12/09 02:49:21;;;;;;;8.43;4.55;;;2.60;99.90;;;;;;5031463;28;20212;-66
2021/12/09 02:51:49;;;;;;;9.13;4.18;;;2.60;99.90;;;;;;5030372;28;20209;-66
2021/12/09 02:54:19;;;;;;;10.75;3.58;;;2.70;99.90;;;;;;5031152;28;20556;-66
2021/12/09 02:56:50;;;;;;;7.22;3.85;;;2.70;99.90;;;;;;5031307;28;20235;-66
2021/12/09 02:59:18;;;;;;;6.13;3.70;;;2.70;99.90;;;;;;5031122;28;20197;-66
2021/12/09 03:01:56;;;;;;;8.90;3.67;;;2.70;99.90;;;;;;5030638;28;20556;-66
2021/12/09 03:04:23;;;;;;;5.75;3.63;;;2.80;99.90;;;;;;5030974;28;20268;-66
2021/12/09 03:06:51;;;;;;;9.15;3.88;;;2.70;99.90;;;;;;5030941;28;20201;-66
2021/12/09 03:09:19;;;;;;;7.28;3.95;;;2.80;99.90;;;;;;5031054;28;20264;-66
2021/12/09 03:11:54;;;;;;;6.03;3.45;;;2.80;99.90;;;;;;5030477;28;20198;-65
2021/12/09 03:14:22;;;;;;;7.00;3.85;;;2.80;99.90;;;;;;5030703;28;20599;-65
2021/12/09 03:16:49;;;;;;;8.07;3.60;;;2.80;99.90;;;;;;5030983;28;20202;-65
2021/12/09 03:19:15;;;;;;;7.57;3.65;;;2.80;99.90;;;;;;5031278;28;20209;-66
2021/12/09 03:21:45;;;;;;;7.60;3.97;;;2.80;99.90;;;;;;5030738;28;20206;-66
2021/12/09 03:24:15;;;;;;;5.32;3.22;;;2.80;99.90;;;;;;5030834;28;20222;-65
2021/12/09 03:26:44;;;;;;;8.32;3.85;;;2.80;99.90;;;;;;5031210;28;20296;-65
2021/12/09 03:29:13;;;;;;;5.97;3.47;;;2.80;99.90;;;;;;5030960;28;20695;-65
2021/12/09 03:31:42;;;;;;;3.90;3.25;;;2.80;99.90;;;;;;5030570;28;20206;-65
2021/12/09 03:34:10;;;;;;;6.78;3.97;;;2.80;99.90;;;;;;5030497;28;20217;-65
2021/12/09 03:36:37;;;;;;;7.00;3.60;;;2.90;99.90;;;;;;5032479;28;20209;-65
2021/12/09 03:39:08;;;;;;;9.45;4.50;;;2.90;99.90;;;;;;5034986;28;20209;-65
2021/12/09 03:41:35;;;;;;;4.72;3.70;;;2.90;99.90;;;;;;5035381;28;20201;-65
2021/12/09 03:44:02;;;;;;;13.75;4.97;;;2.90;99.90;;;;;;5035382;28;20229;-65
2021/12/09 03:46:30;;;;;;;7.10;4.07;;;2.80;99.90;;;;;;5035167;28;20217;-66
2021/12/09 03:48:57;;;;;;;7.18;4.15;;;2.80;99.90;;;;;;5035464;28;20201;-65
2021/12/09 03:51:24;;;;;;;9.02;3.67;;;2.80;99.90;;;;;;5034113;28;20214;-65
2021/12/09 03:53:53;;;;;;;4.72;3.40;;;2.80;99.90;;;;;;5035088;28;20583;-65
2021/12/09 03:56:20;;;;;;;6.97;4.97;;;2.80;99.90;;;;;;5034059;28;20205;-65
2021/12/09 03:58:47;;;;;;;6.43;3.53;;;2.80;99.90;;;;;;5034423;28;20205;-66
2021/12/09 04:01:14;;;;;;;5.78;4.07;;;2.90;99.90;;;;;;5034029;28;20206;-66
2021/12/09 04:03:42;;;;;;;11.13;3.90;;;2.90;99.90;;;;;;5034019;28;20226;-65
2021/12/09 04:06:09;;;;;;;5.95;3.97;;;2.80;99.90;;;;;;5033937;28;20216;-65
2021/12/09 04:08:36;;;;;;;4.57;3.88;;;2.80;99.90;;;;;;5033727;28;20679;-66
2021/12/09 04:11:03;;;;;;;6.90;3.80;;;2.80;99.90;;;;;;5033481;28;20201;-66
2021/12/09 04:13:32;;;;;;;9.35;4.78;;;2.80;99.90;;;;;;5033745;28;20222;-66
2021/12/09 04:16:01;;;;;;;7.47;4.05;;;2.80;99.90;;;;;;5033617;28;20264;-66
2021/12/09 04:18:27;;;;;;;7.18;4.25;;;2.80;99.90;;;;;;5033542;28;20216;-65
2021/12/09 04:20:56;;;;;;;8.18;3.92;;;2.80;99.90;;;;;;5032826;28;20205;-65
2021/12/09 04:23:25;;;;;;;5.13;3.38;;;2.80;99.90;;;;;;5033523;28;20230;-66
2021/12/09 04:25:52;;;;;;;7.63;3.63;;;2.80;99.90;;;;;;5033681;28;20201;-65
2021/12/09 04:28:19;;;;;;;6.40;3.45;;;2.70;99.90;;;;;;5033358;28;20197;-65
2021/12/09 04:30:46;;;;;;;6.53;3.83;;;2.70;99.90;;;;;;5033649;28;20202;-65
2021/12/09 04:33:13;;;;;;;7.28;3.60;;;2.70;99.90;;;;;;5032670;28;20312;-65
2021/12/09 04:35:40;;;;;;;6.97;4.00;;;2.70;99.90;;;;;;5032772;28;20464;-66
2021/12/09 04:38:08;;;;;;;8.15;4.30;;;2.70;99.90;;;;;;5031821;28;20209;-66
2021/12/09 04:40:35;;;;;;;7.00;3.28;;;2.70;99.90;;;;;;5032598;28;20271;-66
2021/12/09 04:43:02;;;;;;;4.93;3.00;;;2.70;99.90;;;;;;5031602;28;20216;-66
2021/12/09 04:45:33;;;;;;;6.80;4.35;;;2.80;99.90;;;;;;5032962;28;20202;-66
2021/12/09 04:48:00;;;;;;;6.95;3.85;;;2.70;99.90;;;;;;5032816;28;20200;-65
2021/12/09 04:50:27;;;;;;;4.95;3.58;;;2.70;99.90;;;;;;5032839;28;20627;-65
2021/12/09 04:52:54;;;;;;;4.75;3.83;;;2.70;99.90;;;;;;5032322;28;20194;-66
2021/12/09 04:55:22;;;;;;;5.05;2.53;;;2.70;99.90;;;;;;5032446;28;20553;-66
2021/12/09 04:57:50;;;;;;;5.28;3.70;;;2.70;99.90;;;;;;5032296;28;20201;-66
2021/12/09 05:00:19;;;;;;;5.70;3.72;;;2.80;99.90;;;;;;5027397;28;20212;-65
2021/12/09 05:03:01;;;;;;;4.18;3.78;;;2.80;99.90;;;;;;5024590;28;20232;-66
2021/12/09 05:05:31;;;;;;;7.60;3.35;;;2.80;99.90;;;;;;5018880;28;20206;-66
2021/12/09 05:07:57;;;;;;;6.78;3.10;;;2.80;99.90;;;;;;5030892;28;20202;-66
2021/12/09 05:10:26;;;;;;;4.45;3.38;;;2.80;99.90;;;;;;5032122;28;20198;-65
2021/12/09 05:12:52;;;;;;;11.23;3.70;;;2.80;99.90;;;;;;5027100;28;20201;-66
2021/12/09 05:15:19;;;;;;;5.20;3.70;;;2.80;99.90;;;;;;5029090;28;20194;-65
2021/12/09 05:17:46;;;;;;;5.47;2.90;;;2.80;99.90;;;;;;5030760;28;20206;-66
2021/12/09 05:20:13;;;;;;;3.47;3.17;;;2.70;99.90;;;;;;5031384;28;20566;-66
2021/12/09 05:22:40;;;;;;;4.95;3.58;;;2.70;99.90;;;;;;5028919;28;20865;-65
2021/12/09 05:25:07;;;;;;;4.65;3.00;;;2.70;99.90;;;;;;5030366;28;20220;-66
2021/12/09 05:27:37;;;;;;;7.15;3.25;;;2.60;99.90;;;;;;5031328;28;20575;-66
2021/12/09 05:30:08;;;;;;;4.25;2.90;;;2.60;99.90;;;;;;5030436;28;20201;-66
2021/12/09 05:32:34;;;;;;;5.38;3.03;;;2.60;99.90;;;;;;5031565;28;20256;-66
2021/12/09 05:35:02;;;;;;;6.28;3.25;;;2.50;99.90;;;;;;5032500;28;20225;-66
2021/12/09 05:37:28;;;;;;;6.43;3.13;;;2.50;99.90;;;;;;5031698;28;20205;-66
2021/12/09 05:39:57;;;;;;;6.03;3.28;;;2.50;99.90;;;;;;5032183;28;20202;-67
2021/12/09 05:42:25;;;;;;;3.38;2.92;;;2.40;99.90;;;;;;5031271;28;20202;-66
2021/12/09 05:44:54;;;;;;;6.53;4.32;;;2.40;99.90;;;;;;5032151;28;20252;-66
2021/12/09 05:47:21;;;;;;;5.25;3.05;;;2.40;99.90;;;;;;5031570;28;20251;-66
2021/12/09 05:49:49;;;;;;;6.15;3.58;;;2.40;99.90;;;;;;5031266;28;20197;-66
2021/12/09 05:52:17;;;;;;;5.57;2.90;;;2.40;99.90;;;;;;5030850;28;20205;-66
2021/12/09 05:54:44;;;;;;;3.28;2.60;;;2.40;99.90;;;;;;5031080;28;20713;-66
2021/12/09 05:57:11;;;;;;;5.60;2.80;;;2.40;99.90;;;;;;5031071;28;20699;-66
2021/12/09 05:59:41;;;;;;;5.85;2.65;;;2.40;99.90;;;;;;5030076;28;20205;-65
2021/12/09 06:02:10;;;;;;;5.60;3.00;;;2.40;99.90;;;;;;5030291;28;20255;-65
2021/12/09 06:04:37;;;;;;;6.47;2.90;;;2.40;99.90;;;;;;5030011;28;20217;-65
2021/12/09 06:07:04;;;;;;;5.53;2.90;;;2.40;99.90;;;;;;5031560;28;20252;-66
2021/12/09 06:09:31;;;;;;;4.63;3.22;;;2.40;99.90;;;;;;5031206;28;20204;-66
2021/12/09 06:11:58;;;;;;;7.38;3.30;;;2.40;99.90;;;;;;5031068;28;20213;-65
2021/12/09 06:14:25;;;;;;;3.95;2.60;;;2.40;99.90;;;;;;5031273;28;20728;-65
2021/12/09 06:16:52;;;;;;;6.10;2.90;;;2.40;99.90;;;;;;5030919;28;20202;-66
2021/12/09 06:19:21;;;;;;;4.68;2.75;;;2.40;99.90;;;;;;5031315;28;20209;-66
2021/12/09 06:21:48;;;;;;;6.10;4.53;;;2.40;99.90;;;;;;5028947;28;20213;-66
2021/12/09 06:24:15;;;;;;;4.18;3.13;;;2.30;99.90;;;;;;5031291;28;20236;-66
2021/12/09 06:26:42;;;;;;;5.95;3.25;;;2.30;99.90;;;;;;5030767;28;20567;-65
2021/12/09 06:29:08;;;;;;;3.58;2.75;;;2.30;99.90;;;;;;5031123;28;20264;-65
2021/12/09 06:31:36;;;;;;;7.47;3.00;;;2.30;99.90;;;;;;5030443;28;20210;-65
2021/12/09 06:34:02;;;;;;;6.90;3.00;;;2.30;99.90;;;;;;5030583;28;20212;-66
2021/12/09 06:36:31;;;;;;;8.38;2.92;;;2.20;99.90;;;;;;5030946;28;20198;-66
2021/12/09 06:38:57;;;;;;;6.00;2.95;;;2.20;99.90;;;;;;5030656;28;20213;-66
2021/12/09 06:41:24;;;;;;;2.70;2.50;;;2.20;99.90;;;;;;5030658;28;20202;-66
2021/12/09 06:43:51;;;;;;;5.20;3.00;;;2.30;99.90;;;;;;5030741;28;20239;-66
2021/12/09 06:46:18;;;;;;;3.33;2.50;;;2.20;99.90;;;;;;5010790;28;20206;-66
2021/12/09 06:48:45;;;;;;;4.60;3.42;;;2.20;99.90;;;;;;5011094;28;20206;-66
2021/12/09 06:51:12;;;;;;;4.88;3.05;;;2.20;99.90;;;;;;5010462;28;20205;-66
2021/12/09 06:53:40;;;;;;;4.88;3.20;;;2.20;99.90;;;;;;5011057;28;20221;-66
2021/12/09 06:56:07;;;;;;;7.30;3.60;;;2.20;99.90;;;;;;5011336;28;20202;-66
2021/12/09 06:58:35;;;;;;;5.30;2.80;;;2.20;99.90;;;;;;5010912;28;20206;-66
2021/12/09 07:01:02;;;;;;;3.70;3.40;;;2.20;99.90;;;;;;5014797;28;20784;-66
2021/12/09 07:03:29;;;;;;;7.75;4.43;;;2.30;99.90;;;;;;5009442;28;20222;-65
2021/12/09 07:05:57;;;;;;;5.10;3.78;;;2.30;99.90;;;;;;5011260;28;20209;-65
2021/12/09 07:08:24;;;;;;;7.13;4.10;;;2.20;99.90;;;;;;5010430;28;20581;-65
2021/12/09 07:10:52;;;;;;;6.97;3.63;;;2.30;99.90;;;;;;5010226;28;20198;-66
2021/12/09 07:13:19;;;;;;;7.55;4.15;;;2.30;99.90;;;;;;5010367;28;20246;-67
2021/12/09 07:15:45;;;;;;;4.80;3.72;;;2.30;99.90;;;;;;5010664;28;20214;-66
2021/12/09 07:18:12;;;;;;;5.63;3.45;;;2.30;99.90;;;;;;5010466;28;20198;-66
2021/12/09 07:20:39;;;;;;;5.40;3.30;;;2.30;99.90;;;;;;5010342;28;20260;-65
2021/12/09 07:23:06;;;;;;;4.13;3.10;;;2.30;99.90;;;;;;5010308;28;20202;-65
2021/12/09 07:25:32;;;;;;;4.93;2.92;;;2.40;99.90;;;;;;5009980;28;20229;-66
2021/12/09 07:28:01;;;;;;;3.60;3.30;;;2.40;99.90;;;;;;5010808;28;20232;-66
2021/12/09 07:30:29;;;;;;;4.90;2.95;;;2.40;99.90;;;;;;5010102;28;20207;-66
2021/12/09 07:32:56;;;;;;;7.05;3.10;;;2.40;99.90;;;;;;5096033;22;20251;-93
2021/12/09 07:35:26;;;;;;;4.50;3.20;;;2.40;99.90;;;;;;5096458;28;20204;-90
2021/12/09 07:37:53;;;;;;;4.65;2.65;;;2.40;99.90;;;;;;5094387;28;20656;-92
2021/12/09 07:40:21;;;;;;;8.75;3.35;;;2.40;99.90;;;;;;5095020;28;20204;-93
2021/12/09 07:42:48;;;;;;;4.38;3.50;;;2.40;99.90;;;;;;5111671;28;20272;-92
2021/12/09 07:45:17;;;;;;;3.58;2.95;;;2.40;99.90;;;;;;5115700;28;20230;-92
2021/12/09 07:47:45;;;;;;;3.58;3.00;;;2.40;99.90;;;;;;5115700;28;20206;-92
2021/12/09 07:50:19;;;;;;;3.65;3.35;;;2.40;99.90;;;;;;5116667;28;20199;-92
2021/12/09 07:52:55;;;;;;;4.65;3.03;;;2.40;99.90;;;;;;5112972;28;20309;-90
2021/12/09 07:55:24;;;;;;;5.45;2.72;;;2.40;99.90;;;;;;5113801;28;20195;-91
2021/12/09 07:57:51;;;;;;;4.45;2.97;;;2.40;99.90;;;;;;5117854;28;20207;-93
2021/12/09 08:00:23;;;;;;;3.42;2.90;;;2.40;99.90;;;;;;5119797;28;20203;-91
2021/12/09 08:02:51;;;;;;;3.67;3.15;;;2.40;99.90;;;;;;5120708;28;20215;-93
2021/12/09 08:05:19;;;;;;;7.30;4.65;;;2.30;99.90;;;;;;5125822;28;20226;-93
2021/12/09 08:07:47;;;;;;;4.88;3.78;;;2.30;99.90;;;;;;5123613;28;20203;-92
2021/12/09 08:10:15;;;;;;;4.57;3.55;;;2.30;99.90;;;;;;5125121;28;20201;-93
2021/12/09 08:12:43;;;;;;;4.45;3.70;;;2.30;99.90;;;;;;5120601;28;20225;-91
2021/12/09 08:15:12;;;;;;;6.55;3.65;;;2.40;99.90;;;;;;5119665;28;20199;-91
2021/12/09 08:18:02;;;;;;;3.15;2.85;;;2.40;99.90;;;;;;5119137;28;20215;-92
2021/12/09 08:20:30;;;;;;;5.03;3.53;;;2.40;99.90;;;;;;5123121;28;20237;-93
2021/12/09 08:22:56;;;;;;;3.88;3.15;;;2.40;99.90;;;;;;5121691;28;20223;-92
2021/12/09 08:25:24;;;;;;;4.53;3.38;;;2.50;99.90;;;;;;5120040;28;20230;-92
2021/12/09 08:27:52;;;;;;;5.75;3.83;;;2.50;99.90;;;;;;5118593;28;20214;-91
2021/12/09 08:30:52;;;;;;;4.32;3.30;;;2.50;99.90;;;;;;5118694;28;20303;-90
2021/12/09 08:36:27;;;;;;;3.03;2.80;;;2.70;99.90;;;;;;5112590;28;20286;-91
2021/12/09 08:38:54;;;;;;;5.20;3.30;;;2.70;99.90;;;;;;5119824;28;20209;-92
2021/12/09 08:41:23;;;;;;;4.45;3.40;;;2.80;99.90;;;;;;5119222;28;20233;-91
2021/12/09 08:43:49;;;;;;;7.60;4.10;;;2.90;99.90;;;;;;5120121;28;20290;-91
2021/12/09 08:46:17;;;;;;;4.38;3.30;;;3.00;99.90;;;;;;5120136;28;20278;-92
2021/12/09 08:48:46;;;;;;;6.20;4.25;;;2.90;99.90;;;;;;5121218;28;20203;-91
2021/12/09 08:51:14;;;;;;;4.78;3.65;;;3.00;99.90;;;;;;5117835;28;20313;-90
2021/12/09 08:53:41;;;;;;;6.95;4.07;;;3.10;99.90;;;;;;5119272;28;20205;-90
2021/12/09 08:56:08;;;;;;;4.60;3.80;;;3.10;99.90;;;;;;5118862;28;20206;-90
2021/12/09 08:58:35;;;;;;;4.07;3.17;;;3.10;99.90;;;;;;5116992;28;20207;-92
2021/12/09 09:01:04;;;;;;;9.70;3.70;;;3.10;99.90;;;;;;5118938;28;20202;-90
2021/12/09 09:03:31;;;;;;;4.50;3.47;;;3.20;99.90;;;;;;5132600;28;20251;-90
2021/12/09 09:06:02;;;;;;;5.78;3.97;;;3.20;99.90;;;;;;5140475;28;20245;-90
2021/12/09 09:08:29;;;;;;;6.13;4.13;;;3.20;99.90;;;;;;5140543;27;20206;-91
2021/12/09 09:10:56;;;;;;;4.43;3.45;;;3.10;99.90;;;;;;5139498;27;20163;-89
2021/12/09 09:13:23;;;;;;;7.03;3.90;;;3.10;99.90;;;;;;5139283;28;20200;-90
2021/12/09 09:15:51;;;;;;;6.00;3.40;;;3.20;99.90;;;;;;5138934;28;20194;-90
2021/12/09 09:18:19;;;;;;;8.48;4.30;;;3.20;99.90;;;;;;5137598;28;20175;-90
2021/12/09 09:20:46;;;;;;;4.50;3.70;;;3.30;99.90;;;;;;5134675;28;20229;-92
2021/12/09 09:23:18;;;;;;;4.43;3.13;;;3.30;99.90;;;;;;5116882;28;20203;-92
2021/12/09 09:25:45;;;;;;;4.72;3.20;;;3.40;99.90;;;;;;5113342;28;20238;-92
2021/12/09 09:28:13;;;;;;;4.93;3.35;;;3.40;99.90;;;;;;5110471;28;20231;-91
2021/12/09 09:30:43;;;;;;;6.20;3.60;;;3.30;99.90;;;;;;5102221;28;20204;-92
2021/12/09 09:33:13;;;;;;;5.28;3.85;;;3.40;99.90;;;;;;5113390;28;20224;-92
2021/12/09 09:35:43;;;;;;;6.22;3.70;;;3.40;99.90;;;;;;5112484;28;20200;-92
2021/12/09 09:38:11;;;;;;;4.75;3.88;;;3.50;99.90;;;;;;5116499;28;20234;-89
2021/12/09 09:40:47;;;;;;;5.45;3.95;;;3.60;99.90;;;;;;5118681;28;21300;-88
2021/12/09 09:43:27;;;;;;;6.22;4.30;;;3.60;99.90;;;;;;5117290;28;20203;-90
2021/12/09 09:45:55;;;;;;;4.32;3.90;;;3.60;99.90;;;;;;5118404;28;20249;-90
2021/12/09 09:48:22;;;;;;;6.40;3.97;;;3.70;99.90;;;;;;5113111;28;20645;-90
2021/12/09 09:50:50;;;;;;;12.32;3.90;;;3.80;99.90;;;;;;5114142;28;20207;-90
2021/12/09 09:53:18;;;;;;;5.53;3.60;;;3.80;99.90;;;;;;5111979;28;20220;-90
2021/12/09 09:55:47;;;;;;;5.57;4.40;;;3.90;99.90;;;;;;5108152;28;20206;-91
2021/12/09 09:58:15;;;;;;;4.63;3.40;;;3.90;99.90;;;;;;5111441;28;20200;-91
2021/12/09 10:00:43;;;;;;;4.05;3.30;;;4.00;99.90;;;;;;5111388;28;20183;-92
2021/12/09 10:03:17;;;;;;;4.70;3.47;;;4.00;99.90;;;;;;5133501;28;20223;-91
2021/12/09 10:05:46;;;;;;;4.20;3.60;;;4.00;99.90;;;;;;5133251;28;20214;-91
2021/12/09 10:08:15;;;;;;;11.57;5.80;;;4.00;99.90;;;;;;5134837;28;20203;-91
2021/12/09 10:10:43;;;;;;;5.30;3.70;;;4.00;99.90;;;;;;5131894;28;20199;-91
2021/12/09 10:13:14;;;;;;;3.60;3.20;;;4.00;99.90;;;;;;5127644;28;20238;-92
2021/12/09 10:15:44;;;;;;;6.57;3.42;;;4.00;99.90;;;;;;5127813;28;20221;-91
2021/12/09 10:18:11;;;;;;;4.75;3.38;;;4.00;99.90;;;;;;5131575;28;20195;-92
2021/12/09 10:20:51;;;;;;;3.67;2.83;;;4.10;99.90;;;;;;5130840;28;20252;-92
2021/12/09 10:23:28;;;;;;;4.75;2.65;;;4.00;99.90;;;;;;5129081;28;20210;-92
2021/12/09 10:26:16;;;;;;;4.93;3.00;;;4.00;99.90;;;;;;5130995;28;20206;-91
2021/12/09 10:28:50;;;;;;;9.18;3.42;;;4.00;99.90;;;;;;5136457;27;20205;-91
2021/12/09 10:31:21;;;;;;;4.55;3.30;;;4.00;99.90;;;;;;5136099;27;20206;-91
2021/12/09 10:34:07;;;;;;;2.90;2.70;;;4.00;99.90;;;;;;5136233;27;20183;-92
2021/12/09 10:36:46;;;;;;;6.32;3.38;;;4.00;99.90;;;;;;5136680;27;20190;-93
2021/12/09 10:39:20;;;;;;;4.43;3.15;;;4.10;99.90;;;;;;5138427;27;20171;-95
2021/12/09 10:41:48;;;;;;;4.25;3.10;;;4.10;99.90;;;;;;5137577;27;20213;-94
2021/12/09 10:44:31;;;;;;;5.45;3.30;;;4.10;99.90;;;;;;5137949;27;20213;-93
2021/12/09 10:47:09;;;;;;;5.00;3.42;;;4.10;99.90;;;;;;5137567;27;20183;-93
2021/12/09 10:49:51;;;;;;;3.42;2.80;;;4.20;99.90;;;;;;5137691;27;20191;-95
2021/12/09 10:52:24;;;;;;;5.60;3.67;;;4.30;99.90;;;;;;5137775;27;20230;-91
2021/12/09 10:54:52;;;;;;;3.30;3.00;;;4.30;99.90;;;;;;5137501;27;20217;-92
2021/12/09 10:57:30;;;;;;;4.60;2.97;;;4.20;99.90;;;;;;5135984;27;20189;-92
2021/12/09 11:00:13;;;;;;;2.90;2.67;;;4.20;99.90;;;;;;5138066;27;20230;-93
2021/12/09 11:03:01;;;;;;;3.80;2.95;;;4.30;99.90;;;;;;5137109;27;20210;-92
2021/12/09 11:05:29;;;;;;;5.00;2.95;;;4.30;99.90;;;;;;5137899;27;20232;-92
2021/12/09 11:08:13;;;;;;;4.82;2.78;;;4.40;99.90;;;;;;5136763;27;20269;-93
2021/12/09 11:10:46;;;;;;;2.83;2.20;;;4.40;99.90;;;;;;5138035;28;20233;-93
2021/12/09 11:13:16;;;;;;;5.68;2.88;;;4.50;99.90;;;;;;5136113;28;20270;-90
2021/12/09 11:15:54;;;;;;;3.58;2.47;;;4.60;99.90;;;;;;5137758;28;20187;-91
2021/12/09 11:18:36;;;;;;;2.80;2.50;;;4.70;99.90;;;;;;5137597;28;20175;-92
2021/12/09 11:21:11;;;;;;;5.30;2.33;;;4.80;99.90;;;;;;5137746;28;20179;-91
2021/12/09 11:23:43;;;;;;;5.00;2.42;;;4.90;99.90;;;;;;5138399;28;20215;-92
2021/12/09 11:26:33;;;;;;;5.00;2.38;;;4.70;99.90;;;;;;5137716;28;20282;-92
2021/12/09 11:29:04;;;;;;;4.28;2.67;;;4.70;99.90;;;;;;5138233;28;20216;-92
2021/12/09 11:31:35;;;;;;;3.55;2.72;;;4.70;99.90;;;;;;5137657;28;20304;-93
2021/12/09 11:34:11;;;;;;;3.22;2.50;;;4.80;99.90;;;;;;5137710;28;20187;-92
2021/12/09 11:36:46;;;;;;;6.93;2.60;;;4.90;99.90;;;;;;5137620;28;20183;-92
2021/12/09 11:39:31;;;;;;;4.85;2.78;;;5.00;99.90;;;;;;5135317;28;20198;-91
2021/12/09 11:42:10;;;;;;;3.47;2.70;;;5.20;99.90;;;;;;5136011;27;20203;-93
2021/12/09 11:44:39;;;;;;;5.35;2.80;;;5.20;99.90;;;;;;5137576;27;20194;-93
2021/12/09 11:47:07;;;;;;;3.70;2.53;;;5.10;99.90;;;;;;5133611;27;20286;-93
2021/12/09 11:49:34;;;;;;;3.08;2.42;;;5.10;99.90;;;;;;5133719;27;20203;-92
2021/12/09 11:52:00;;;;;;;4.57;2.75;;;5.10;99.90;;;;;;5133025;28;20217;-94
2021/12/09 11:54:28;;;;;;;4.45;2.53;;;5.30;99.90;;;;;;5134143;27;20270;-92
2021/12/09 11:57:12;;;;;;;2.85;2.25;;;5.80;99.90;;;;;;5131065;28;20260;-94
2021/12/09 12:06:38;;;;;;;8.98;2.90;;;6.70;99.90;;;;;;5137717;28;20226;-94
2021/12/09 12:11:39;;;;;;;3.13;2.20;;;7.30;99.90;;;;;;5056920;28;20395;-94
2021/12/09 12:14:27;;;;;;;4.05;2.58;;;7.20;99.90;;;;;;5067216;28;20208;-93
2021/12/09 12:17:07;;;;;;;3.47;2.47;;;7.00;99.90;;;;;;5118847;27;20278;-91
2021/12/09 12:20:15;;;;;;;2.95;2.15;;;6.70;99.90;;;;;;5124809;28;20195;-94
2021/12/09 12:23:01;;;;;;;3.63;2.97;;;6.40;99.90;;;;;;5123841;28;20230;-94
2021/12/09 12:28:55;;;;;;;2.75;2.10;;;6.70;99.90;;;;;;5130406;28;20193;-94
2021/12/09 12:32:00;;;;;;;3.78;2.30;;;7.30;99.90;;;;;;5131840;28;20243;-94
2021/12/09 12:37:59;;;;;;;4.65;2.10;;;7.60;99.90;;;;;;5131411;28;20205;-92
2021/12/09 12:40:33;;;;;;;4.60;2.38;;;7.20;99.90;;;;;;5131760;28;20210;-93
2021/12/09 12:43:05;;;;;;;6.50;2.60;;;6.90;99.90;;;;;;5135062;28;20562;-95
2021/12/09 12:52:08;;;;;;;6.22;2.42;;;6.60;99.90;;;;;;5134602;27;20221;-95
2021/12/09 12:54:52;;;;;;;3.92;1.90;;;6.80;99.90;;;;;;5136127;27;20195;-93
2021/12/09 12:57:51;;;;;;;3.17;2.10;;;7.00;99.90;;;;;;5133461;28;20291;-93
2021/12/09 13:00:42;;;;;;;11.13;2.35;;;7.20;99.90;;;;;;5137372;28;20195;-94
2021/12/09 13:03:19;;;;;;;4.80;1.95;;;7.30;99.90;;;;;;5137695;28;20227;-92
2021/12/09 13:06:09;;;;;;;3.55;2.40;;;7.40;99.90;;;;;;5130672;28;20246;-92
2021/12/09 13:09:10;;;;;;;4.78;2.00;;;7.70;99.90;;;;;;5128830;28;20207;-93
2021/12/09 13:11:48;;;;;;;2.60;1.90;;;7.90;99.90;;;;;;5131754;28;20218;-92
2021/12/09 13:14:32;;;;;;;5.53;1.95;;;8.40;99.90;;;;;;5131055;28;20217;-93
2021/12/09 13:17:05;;;;;;;6.97;2.22;;;8.70;99.90;;;;;;5138388;28;20198;-93
2021/12/09 13:19:40;;;;;;;2.90;1.77;;;9.00;99.90;;;;;;5138995;28;20203;-95
2021/12/09 13:22:28;;;;;;;3.60;2.00;;;9.40;99.90;;;;;;5136278;28;20240;-93
2021/12/09 13:25:18;;;;;;;2.33;1.70;;;9.20;99.90;;;;;;5134170;28;20310;-94
2021/12/09 13:28:12;;;;;;;4.35;1.92;;;8.50;99.90;;;;;;5135269;28;20290;-91
2021/12/09 13:31:07;;;;;;;6.38;2.22;;;7.70;99.90;;;;;;5132840;28;20201;-93
2021/12/09 13:33:49;;;;;;;2.13;1.90;;;7.40;99.90;;;;;;5116955;22;20259;-91
2021/12/09 13:36:40;;;;;;;3.40;2.28;;;7.00;99.90;;;;;;5073998;28;20196;-90
2021/12/09 13:47:46;;;;;;;9.88;2.40;;;6.10;99.90;;;;;;5093715;28;20574;-91
2021/12/09 13:50:42;;;;;;;4.70;2.38;;;6.00;99.90;;;;;;5096311;28;20199;-93
2021/12/09 13:56:01;;;;;;;4.88;2.30;;;5.90;99.90;;;;;;5099805;28;20195;-93
2021/12/09 13:58:38;;;;;;;8.88;2.60;;;5.80;99.90;;;;;;5097707;28;20200;-94
2021/12/09 14:01:07;;;;;;;4.88;2.22;;;5.70;99.90;;;;;;5098835;28;20283;-94